Time,TemperatureF,DewpointF,PressureIn,WindDirection,WindDirectionDegrees,WindSpeedMPH,WindSpeedGustMPH,Humidity,HourlyPrecipIn,Conditions,Clouds,dailyrainin,SoftwareType,DateUTC
2013-03-07 00:00:00,24.3,21.2,29.07,SE,135,12.7,12.7,88,0.00,,,0.00,WeatherDisplay:10.37,2013-03-07 06:00:00,
2013-03-07 00:05:00,24.3,21.2,29.06,SE,135,11.5,11.5,88,0.00,,,0.00,WeatherDisplay:10.37,2013-03-07 06:05:00,
2013-03-07 00:10:00,24.1,21.0,29.06,SE,135,10.4,10.4,88,0.00,,,0.00,WeatherDisplay:10.37,2013-03-07 06:10:00,
2013-03-07 00:16:00,23.9,20.9,29.06,SE,135,15.0,15.0,88,0.00,,,0.00,WeatherDisplay:10.37,2013-03-07 06:16:00,
2013-03-07 00:21:00,23.9,20.9,29.06,East,90,12.7,12.7,88,0.00,,,0.00,WeatherDisplay:10.37,2013-03-07 06:21:00,
2013-03-07 00:26:00,23.7,21.0,29.06,SE,135,10.4,10.4,89,0.00,,,0.00,WeatherDisplay:10.37,2013-03-07 06:26:00,
2013-03-07 00:31:00,23.7,21.0,29.06,SE,135,8.1,8.1,89,0.00,,,0.00,WeatherDisplay:10.37,2013-03-07 06:31:00,
2013-03-07 00:36:00,23.5,20.8,29.06,ESE,112,12.7,12.7,89,0.00,,,0.00,WeatherDisplay:10.37,2013-03-07 06:36:00,
2013-03-07 00:42:00,23.7,21.0,29.06,SE,135,12.7,12.7,89,0.00,,,0.00,WeatherDisplay:10.37,2013-03-07 06:42:00,
2013-03-07 00:47:00,23.5,20.8,29.07,SSE,158,12.7,12.7,89,0.00,,,0.00,WeatherDisplay:10.37,2013-03-07 06:47:00,
2013-03-07 00:52:00,23.5,20.8,29.07,SE,135,12.7,12.7,89,0.00,,,0.00,WeatherDisplay:10.37,2013-03-07 06:52:00,
2013-03-07 00:57:00,23.4,20.6,29.07,SE,135,15.0,15.0,89,0.00,,,0.00,WeatherDisplay:10.37,2013-03-07 06:57:00,
2013-03-07 01:02:00,23.4,20.6,29.07,SE,135,10.4,10.4,89,0.00,,,0.00,WeatherDisplay:10.37,2013-03-07 07:02:00,
2013-03-07 01:08:00,23.2,20.7,29.07,SE,135,10.4,10.4,90,0.00,,,0.00,WeatherDisplay:10.37,2013-03-07 07:08:00,
2013-03-07 01:13:00,23.2,20.7,29.08,SE,135,10.4,10.4,90,0.00,,,0.00,WeatherDisplay:10.37,2013-03-07 07:13:00,
2013-03-07 01:18:00,23.2,20.7,29.08,SE,135,12.7,12.7,90,0.00,,,0.00,WeatherDisplay:10.37,2013-03-07 07:18:00,
2013-03-07 01:23:00,23.2,20.7,29.08,SE,135,10.4,10.4,90,0.00,,,0.00,WeatherDisplay:10.37,2013-03-07 07:23:00,
2013-03-07 01:28:00,23.0,20.5,29.08,SE,135,12.7,12.7,90,0.00,,,0.00,WeatherDisplay:10.37,2013-03-07 07:28:00,
2013-03-07 01:34:00,23.0,20.5,29.08,SE,135,12.7,12.7,90,0.00,,,0.00,WeatherDisplay:10.37,2013-03-07 07:34:00,
2013-03-07 01:39:00,22.8,20.3,29.08,SE,135,10.4,10.4,90,0.00,,,0.00,WeatherDisplay:10.37,2013-03-07 07:39:00,
2013-03-07 01:44:00,22.8,20.3,29.08,SE,135,10.4,10.4,90,0.00,,,0.00,WeatherDisplay:10.37,2013-03-07 07:44:00,
2013-03-07 01:49:00,22.8,20.3,29.08,SE,135,10.7,10.7,90,0.00,,,0.00,WeatherDisplay:10.37,2013-03-07 07:49:00,
2013-03-07 01:54:00,22.6,20.4,29.08,SE,135,10.4,10.4,91,0.00,,,0.00,WeatherDisplay:10.37,2013-03-07 07:54:00,
2013-03-07 02:00:00,22.6,20.4,29.07,SE,131,7.0,13.0,91,0.00,,,0.00,WeatherDisplay:10.37,2013-03-07 08:00:00,
2013-03-07 02:05:00,22.5,20.2,29.08,SE,135,6.9,6.9,91,0.00,,,0.00,WeatherDisplay:10.37,2013-03-07 08:05:00,
2013-03-07 02:10:00,22.5,20.2,29.08,SE,135,10.4,10.4,91,0.00,,,0.00,WeatherDisplay:10.37,2013-03-07 08:10:00,
2013-03-07 02:15:00,22.5,20.2,29.07,SE,135,9.2,9.2,91,0.00,,,0.00,WeatherDisplay:10.37,2013-03-07 08:15:00,
2013-03-07 02:20:00,22.5,20.2,29.07,SE,135,12.7,12.7,91,0.00,,,0.00,WeatherDisplay:10.37,2013-03-07 08:20:00,
2013-03-07 02:25:00,22.5,20.2,29.07,SE,135,11.5,11.5,91,0.00,,,0.00,WeatherDisplay:10.37,2013-03-07 08:25:00,
2013-03-07 02:31:00,22.5,20.2,29.06,SE,135,10.4,10.4,91,0.00,,,0.00,WeatherDisplay:10.37,2013-03-07 08:31:00,
2013-03-07 02:36:00,22.5,20.2,29.06,SE,135,13.8,13.8,91,0.00,,,0.00,WeatherDisplay:10.37,2013-03-07 08:36:00,
2013-03-07 02:41:00,22.3,20.1,29.06,SE,135,12.7,12.7,91,0.00,,,0.00,WeatherDisplay:10.37,2013-03-07 08:41:00,
2013-03-07 02:46:00,22.5,20.2,29.05,SE,135,10.4,10.4,91,0.00,,,0.00,WeatherDisplay:10.37,2013-03-07 08:46:00,
2013-03-07 02:51:00,22.5,20.0,29.06,SE,135,10.4,10.4,90,0.00,,,0.00,WeatherDisplay:10.37,2013-03-07 08:51:00,
2013-03-07 02:57:00,22.5,20.0,29.06,SSE,158,8.1,8.3,90,0.00,,,0.00,WeatherDisplay:10.37,2013-03-07 08:57:00,
2013-03-07 03:02:00,22.5,20.0,29.06,SE,135,12.7,12.7,90,0.00,,,0.00,WeatherDisplay:10.37,2013-03-07 09:02:00,
2013-03-07 03:07:00,22.5,20.0,29.05,SE,135,13.8,13.8,90,0.00,,,0.00,WeatherDisplay:10.37,2013-03-07 09:07:00,
2013-03-07 03:12:00,22.5,20.0,29.05,SE,135,12.7,12.7,90,0.00,,,0.00,WeatherDisplay:10.37,2013-03-07 09:12:00,
2013-03-07 03:17:00,22.5,20.0,29.05,SE,135,12.7,12.7,90,0.00,,,0.00,WeatherDisplay:10.37,2013-03-07 09:17:00,
2013-03-07 03:22:00,22.5,20.0,29.05,SE,135,13.8,13.8,90,0.00,,,0.00,WeatherDisplay:10.37,2013-03-07 09:22:00,
2013-03-07 03:27:00,22.5,20.0,29.05,South,180,12.7,12.7,90,0.00,,,0.00,WeatherDisplay:10.37,2013-03-07 09:27:00,
2013-03-07 03:33:00,22.5,20.0,29.05,SE,135,11.5,11.5,90,0.00,,,0.00,WeatherDisplay:10.37,2013-03-07 09:33:00,
2013-03-07 03:38:00,22.1,19.6,29.04,SE,135,11.5,11.5,90,0.00,,,0.00,WeatherDisplay:10.37,2013-03-07 09:38:00,
2013-03-07 03:43:00,22.1,19.6,29.04,SE,135,12.7,12.7,90,0.00,,,0.00,WeatherDisplay:10.37,2013-03-07 09:43:00,
2013-03-07 03:48:00,22.1,19.6,29.03,SE,135,10.4,10.4,90,0.00,,,0.00,WeatherDisplay:10.37,2013-03-07 09:48:00,
2013-03-07 03:54:00,21.9,19.4,29.04,SE,135,15.0,15.0,90,0.00,,,0.00,WeatherDisplay:10.37,2013-03-07 09:54:00,
2013-03-07 03:59:00,22.1,19.6,29.04,SE,135,12.7,12.7,90,0.00,,,0.00,WeatherDisplay:10.37,2013-03-07 09:59:00,
2013-03-07 04:04:00,21.9,19.4,29.03,SE,135,12.7,12.7,90,0.00,,,0.00,WeatherDisplay:10.37,2013-03-07 10:04:00,
2013-03-07 04:09:00,22.1,19.6,29.04,SE,135,9.2,9.2,90,0.00,,,0.00,WeatherDisplay:10.37,2013-03-07 10:09:00,
2013-03-07 04:14:00,22.1,19.6,29.04,SE,135,12.7,12.7,90,0.00,,,0.00,WeatherDisplay:10.37,2013-03-07 10:14:00,
2013-03-07 04:19:00,22.1,19.6,29.04,SE,135,12.7,12.7,90,0.00,,,0.00,WeatherDisplay:10.37,2013-03-07 10:19:00,
2013-03-07 04:25:00,21.9,19.4,29.03,SE,135,15.0,15.0,90,0.00,,,0.00,WeatherDisplay:10.37,2013-03-07 10:25:00,
2013-03-07 04:30:00,21.9,19.4,29.04,SE,135,11.5,11.5,90,0.00,,,0.00,WeatherDisplay:10.37,2013-03-07 10:30:00,
2013-03-07 04:35:00,22.1,19.6,29.03,SE,135,12.7,12.7,90,0.00,,,0.00,WeatherDisplay:10.37,2013-03-07 10:35:00,
2013-03-07 04:40:00,22.1,19.6,29.03,SE,135,12.7,12.7,90,0.00,,,0.00,WeatherDisplay:10.37,2013-03-07 10:40:00,
2013-03-07 04:46:00,21.9,19.4,29.03,SE,135,11.5,11.5,90,0.00,,,0.00,WeatherDisplay:10.37,2013-03-07 10:46:00,
2013-03-07 04:51:00,21.9,19.4,29.03,SE,135,11.5,11.5,90,0.00,,,0.00,WeatherDisplay:10.37,2013-03-07 10:51:00,
2013-03-07 04:56:00,21.9,19.4,29.04,SE,135,10.4,10.4,90,0.00,,,0.00,WeatherDisplay:10.37,2013-03-07 10:56:00,
2013-03-07 05:01:00,21.7,19.3,29.04,SE,135,10.4,10.4,90,0.00,,,0.00,WeatherDisplay:10.37,2013-03-07 11:01:00,
2013-03-07 05:06:00,21.7,19.3,29.04,SE,135,9.2,9.2,90,0.00,,,0.00,WeatherDisplay:10.37,2013-03-07 11:06:00,
2013-03-07 05:11:00,21.7,19.3,29.04,SE,135,8.1,8.1,90,0.00,,,0.00,WeatherDisplay:10.37,2013-03-07 11:11:00,
2013-03-07 05:17:00,21.7,19.3,29.04,SE,135,12.7,12.7,90,0.00,,,0.00,WeatherDisplay:10.37,2013-03-07 11:17:00,
2013-03-07 05:22:00,21.7,19.3,29.04,SE,135,10.4,10.4,90,0.00,,,0.00,WeatherDisplay:10.37,2013-03-07 11:22:00,
2013-03-07 05:27:00,21.7,19.3,29.04,SE,135,13.0,13.0,90,0.00,,,0.00,WeatherDisplay:10.37,2013-03-07 11:27:00,
2013-03-07 05:32:00,21.7,19.3,29.04,SE,135,15.0,15.0,90,0.00,,,0.00,WeatherDisplay:10.37,2013-03-07 11:32:00,
2013-03-07 05:37:00,21.6,19.1,29.04,SE,135,17.3,17.3,90,0.00,,,0.00,WeatherDisplay:10.37,2013-03-07 11:37:00,
2013-03-07 05:43:00,21.6,19.1,29.04,SE,135,12.7,12.7,90,0.00,,,0.00,WeatherDisplay:10.37,2013-03-07 11:43:00,
2013-03-07 05:48:00,21.6,19.1,29.04,SE,135,12.7,12.7,90,0.00,,,0.00,WeatherDisplay:10.37,2013-03-07 11:48:00,
2013-03-07 05:53:00,21.4,18.9,29.04,SSW,202,15.0,15.0,90,0.00,,,0.00,WeatherDisplay:10.37,2013-03-07 11:53:00,
2013-03-07 05:58:00,21.4,18.9,29.05,SE,135,12.7,12.7,90,0.00,,,0.00,WeatherDisplay:10.37,2013-03-07 11:58:00,
2013-03-07 06:04:00,21.2,18.7,29.05,SE,135,11.5,11.5,90,0.00,,,0.00,WeatherDisplay:10.37,2013-03-07 12:04:00,
2013-03-07 06:09:00,21.2,18.7,29.04,SE,135,15.0,15.0,90,0.00,,,0.00,WeatherDisplay:10.37,2013-03-07 12:09:00,
2013-03-07 06:14:00,21.2,18.7,29.04,South,180,10.4,10.7,90,0.00,,,0.00,WeatherDisplay:10.37,2013-03-07 12:14:00,
2013-03-07 06:19:00,21.0,18.5,29.05,SE,135,13.8,13.8,90,0.00,,,0.00,WeatherDisplay:10.37,2013-03-07 12:19:00,
2013-03-07 06:25:00,21.0,18.5,29.05,SE,135,15.0,15.0,90,0.00,,,0.00,WeatherDisplay:10.37,2013-03-07 12:25:00,
2013-03-07 06:30:00,21.0,18.5,29.05,SSE,158,15.0,15.0,90,0.00,,,0.00,WeatherDisplay:10.37,2013-03-07 12:30:00,
2013-03-07 06:35:00,21.0,18.8,29.04,South,180,13.8,13.8,91,0.00,,,0.00,WeatherDisplay:10.37,2013-03-07 12:35:00,
2013-03-07 06:41:00,21.0,18.8,29.05,SE,135,13.8,13.8,91,0.00,,,0.00,WeatherDisplay:10.37,2013-03-07 12:41:00,
2013-03-07 06:46:00,21.0,18.5,29.05,SE,135,16.1,16.1,90,0.00,,,0.00,WeatherDisplay:10.37,2013-03-07 12:46:00,
2013-03-07 06:51:00,21.0,18.5,29.06,SE,135,16.1,16.1,90,0.00,,,0.00,WeatherDisplay:10.37,2013-03-07 12:51:00,
2013-03-07 06:56:00,20.8,18.4,29.06,South,180,11.5,11.5,90,0.00,,,0.00,WeatherDisplay:10.37,2013-03-07 12:56:00,
2013-03-07 07:01:00,20.8,18.4,29.06,SE,135,8.1,8.1,90,0.00,,,0.00,WeatherDisplay:10.37,2013-03-07 13:01:00,
2013-03-07 07:07:00,21.0,18.5,29.06,SE,135,13.8,13.8,90,0.00,,,0.00,WeatherDisplay:10.37,2013-03-07 13:07:00,
2013-03-07 07:12:00,21.0,18.5,29.06,SE,135,10.4,10.4,90,0.00,,,0.00,WeatherDisplay:10.37,2013-03-07 13:12:00,
2013-03-07 07:17:00,21.2,18.7,29.05,South,180,10.4,10.4,90,0.00,,,0.00,WeatherDisplay:10.37,2013-03-07 13:17:00,
2013-03-07 07:22:00,21.4,18.9,29.04,SE,135,15.0,15.0,90,0.00,,,0.00,WeatherDisplay:10.37,2013-03-07 13:22:00,
2013-03-07 07:28:00,21.6,18.8,29.05,SE,135,12.7,12.7,89,0.00,,,0.00,WeatherDisplay:10.37,2013-03-07 13:28:00,
2013-03-07 07:33:00,21.9,19.2,29.05,SE,135,12.7,12.7,89,0.00,,,0.00,WeatherDisplay:10.37,2013-03-07 13:33:00,
2013-03-07 07:38:00,22.3,19.3,29.05,SE,135,15.0,15.0,88,0.00,,,0.00,WeatherDisplay:10.37,2013-03-07 13:38:00,
2013-03-07 07:43:00,22.5,19.4,29.05,SE,135,12.7,12.7,88,0.00,,,0.00,WeatherDisplay:10.37,2013-03-07 13:43:00,
2013-03-07 07:49:00,22.5,19.2,29.04,SSE,158,12.7,12.7,87,0.00,,,0.00,WeatherDisplay:10.37,2013-03-07 13:49:00,
2013-03-07 07:54:00,22.8,19.5,29.04,SSE,158,15.0,15.0,87,0.00,,,0.00,WeatherDisplay:10.37,2013-03-07 13:54:00,
2013-03-07 07:59:00,23.0,19.7,29.04,SE,135,18.4,18.4,87,0.00,,,0.00,WeatherDisplay:10.37,2013-03-07 13:59:00,
2013-03-07 08:04:00,23.0,19.7,29.03,SE,135,19.6,19.6,87,0.00,,,0.00,WeatherDisplay:10.37,2013-03-07 14:04:00,
2013-03-07 08:10:00,23.4,20.1,29.03,SE,135,17.3,17.3,87,0.00,,,0.00,WeatherDisplay:10.37,2013-03-07 14:10:00,
2013-03-07 08:15:00,23.5,20.0,29.03,SE,135,19.6,19.6,86,0.00,,,0.00,WeatherDisplay:10.37,2013-03-07 14:15:00,
2013-03-07 08:20:00,23.7,20.1,29.03,SE,135,18.4,18.4,86,0.00,,,0.00,WeatherDisplay:10.37,2013-03-07 14:20:00,
2013-03-07 08:25:00,23.9,20.3,29.03,SE,135,19.6,19.6,86,0.00,,,0.00,WeatherDisplay:10.37,2013-03-07 14:25:00,
2013-03-07 08:30:00,24.3,20.4,29.03,SE,135,21.9,21.9,85,0.00,,,0.00,WeatherDisplay:10.37,2013-03-07 14:30:00,
2013-03-07 08:35:00,24.4,20.9,29.03,SE,135,19.6,19.6,86,0.00,,,0.00,WeatherDisplay:10.37,2013-03-07 14:35:00,
2013-03-07 08:40:00,25.2,21.6,29.02,South,180,17.3,17.3,86,0.00,,,0.00,WeatherDisplay:10.37,2013-03-07 14:40:00,
2013-03-07 08:45:00,25.3,21.5,29.02,SE,135,19.6,19.6,85,0.00,,,0.00,WeatherDisplay:10.37,2013-03-07 14:45:00,
2013-03-07 08:51:00,25.3,21.5,29.02,SE,135,20.7,20.7,85,0.00,,,0.00,WeatherDisplay:10.37,2013-03-07 14:51:00,
2013-03-07 08:56:00,25.7,21.5,29.02,SE,135,25.3,25.3,84,0.00,,,0.00,WeatherDisplay:10.37,2013-03-07 14:56:00,
2013-03-07 09:01:00,25.9,21.4,29.02,SE,135,26.5,26.5,83,0.00,,,0.00,WeatherDisplay:10.37,2013-03-07 15:01:00,
2013-03-07 09:07:00,26.2,21.8,29.02,SSE,158,23.0,23.0,83,0.00,,,0.00,WeatherDisplay:10.37,2013-03-07 15:07:00,
2013-03-07 09:12:00,26.2,21.5,29.02,South,180,26.5,26.5,82,0.00,,,0.00,WeatherDisplay:10.37,2013-03-07 15:12:00,
2013-03-07 09:17:00,26.6,21.8,29.02,SSE,158,27.6,27.6,82,0.00,,,0.00,WeatherDisplay:10.37,2013-03-07 15:17:00,
2013-03-07 09:22:00,27.0,22.2,29.02,South,180,23.0,23.0,82,0.00,,,0.00,WeatherDisplay:10.37,2013-03-07 15:22:00,
2013-03-07 09:27:00,27.0,21.9,29.02,SE,135,23.0,23.0,81,0.00,,,0.00,WeatherDisplay:10.37,2013-03-07 15:27:00,
2013-03-07 09:32:00,27.3,22.3,29.01,South,180,25.3,25.3,81,0.00,,,0.00,WeatherDisplay:10.37,2013-03-07 15:32:00,
2013-03-07 09:37:00,27.5,22.4,29.01,South,180,23.0,23.0,81,0.00,,,0.00,WeatherDisplay:10.37,2013-03-07 15:37:00,
2013-03-07 09:43:00,27.7,22.9,29.00,South,180,26.5,26.5,82,0.00,,,0.00,WeatherDisplay:10.37,2013-03-07 15:43:00,
2013-03-07 09:48:00,27.9,22.8,29.00,South,180,23.0,23.0,81,0.00,,,0.00,WeatherDisplay:10.37,2013-03-07 15:48:00,
2013-03-07 09:53:00,28.6,23.8,29.00,SSE,158,20.7,20.7,82,0.00,,,0.00,WeatherDisplay:10.37,2013-03-07 15:53:00,
2013-03-07 09:58:00,28.6,23.5,29.00,SE,135,24.2,24.2,81,0.00,,,0.00,WeatherDisplay:10.37,2013-03-07 15:58:00,
2013-03-07 10:03:00,28.8,23.4,29.00,SSE,158,25.3,25.3,80,0.00,,,0.00,WeatherDisplay:10.37,2013-03-07 16:03:00,
2013-03-07 10:09:00,29.3,23.9,29.00,South,180,21.9,21.9,80,0.00,,,0.00,WeatherDisplay:10.37,2013-03-07 16:09:00,
2013-03-07 10:14:00,29.7,23.9,29.00,South,180,20.7,20.7,79,0.00,,,0.00,WeatherDisplay:10.37,2013-03-07 16:14:00,
2013-03-07 10:19:00,30.0,24.3,29.00,South,180,23.0,23.0,79,0.00,,,0.00,WeatherDisplay:10.37,2013-03-07 16:19:00,
2013-03-07 10:24:00,29.8,24.1,29.00,SSE,158,23.0,23.0,79,0.00,,,0.00,WeatherDisplay:10.37,2013-03-07 16:24:00,
2013-03-07 10:29:00,30.7,25.3,29.00,SSE,158,17.3,17.3,80,0.00,,,0.00,WeatherDisplay:10.37,2013-03-07 16:29:00,
2013-03-07 10:35:00,30.6,24.8,29.00,SSE,158,21.9,21.9,79,0.00,,,0.00,WeatherDisplay:10.37,2013-03-07 16:35:00,
2013-03-07 10:40:00,30.9,24.9,29.00,South,180,24.2,24.2,78,0.00,,,0.00,WeatherDisplay:10.37,2013-03-07 16:40:00,
2013-03-07 10:45:00,31.3,25.2,29.00,South,180,20.7,20.7,78,0.00,,,0.00,WeatherDisplay:10.37,2013-03-07 16:45:00,
2013-03-07 10:50:00,31.3,25.2,29.00,South,180,20.7,20.7,78,0.00,,,0.00,WeatherDisplay:10.37,2013-03-07 16:50:00,
2013-03-07 10:55:00,32.0,25.6,28.99,SE,135,21.9,21.9,77,0.00,,,0.00,WeatherDisplay:10.37,2013-03-07 16:55:00,
2013-03-07 11:00:00,32.4,26.3,29.00,SE,135,20.7,20.7,78,0.00,,,0.00,WeatherDisplay:10.37,2013-03-07 17:00:00,
2013-03-07 11:06:00,32.5,26.1,28.99,South,180,20.7,20.7,77,0.00,,,0.00,WeatherDisplay:10.37,2013-03-07 17:06:00,
2013-03-07 11:11:00,33.1,26.7,28.99,SE,135,19.6,19.6,77,0.01,RA,,0.01,WeatherDisplay:10.37,2013-03-07 17:11:00,
2013-03-07 11:16:00,33.6,26.9,28.98,SE,135,18.4,18.4,76,0.01,RA,,0.01,WeatherDisplay:10.37,2013-03-07 17:16:00,
2013-03-07 11:21:00,33.6,26.5,28.98,SE,135,20.7,20.7,75,0.01,,,0.01,WeatherDisplay:10.37,2013-03-07 17:21:00,
2013-03-07 11:26:00,34.3,27.6,28.98,SSE,158,20.7,20.7,76,0.01,,,0.01,WeatherDisplay:10.37,2013-03-07 17:26:00,
2013-03-07 11:32:00,34.3,26.9,28.98,SE,135,17.3,17.3,74,0.01,,,0.01,WeatherDisplay:10.37,2013-03-07 17:32:00,
2013-03-07 11:37:00,34.3,26.6,28.98,SE,135,20.7,20.7,73,0.01,,,0.01,WeatherDisplay:10.37,2013-03-07 17:37:00,
2013-03-07 11:42:00,34.5,27.1,28.98,South,180,20.7,20.7,74,0.01,,,0.01,WeatherDisplay:10.37,2013-03-07 17:42:00,
2013-03-07 11:47:00,35.1,28.3,28.98,South,180,19.6,19.6,76,0.01,,,0.01,WeatherDisplay:10.37,2013-03-07 17:47:00,
2013-03-07 11:52:00,35.2,27.8,28.98,South,180,20.7,20.7,74,0.01,,,0.01,WeatherDisplay:10.37,2013-03-07 17:52:00,
2013-03-07 11:57:00,35.4,27.6,28.98,SSE,158,20.7,20.7,73,0.01,,,0.01,WeatherDisplay:10.37,2013-03-07 17:57:00,
2013-03-07 12:03:00,36.1,28.0,28.98,SE,135,21.9,21.9,72,0.01,,,0.01,WeatherDisplay:10.37,2013-03-07 18:03:00,
2013-03-07 12:08:00,36.1,28.0,28.98,SSE,158,20.7,20.7,72,0.01,,,0.01,WeatherDisplay:10.37,2013-03-07 18:08:00,
2013-03-07 12:13:00,36.5,28.3,28.98,SSE,158,19.6,19.6,72,0.00,,,0.01,WeatherDisplay:10.37,2013-03-07 18:13:00,
2013-03-07 12:18:00,36.9,28.3,28.98,South,180,20.7,20.7,71,0.00,,,0.01,WeatherDisplay:10.37,2013-03-07 18:18:00,
2013-03-07 12:24:00,36.5,27.6,28.98,SSE,158,20.7,20.7,70,0.00,,,0.01,WeatherDisplay:10.37,2013-03-07 18:24:00,
2013-03-07 12:29:00,37.6,29.0,28.98,South,180,17.3,17.3,71,0.00,,,0.01,WeatherDisplay:10.37,2013-03-07 18:29:00,
2013-03-07 12:34:00,38.5,29.2,28.98,South,180,21.9,21.9,69,0.00,,,0.01,WeatherDisplay:10.37,2013-03-07 18:34:00,
2013-03-07 12:39:00,38.7,29.4,28.98,South,180,17.3,17.3,69,0.00,,,0.01,WeatherDisplay:10.37,2013-03-07 18:39:00,
2013-03-07 12:44:00,39.0,30.1,28.98,South,180,12.7,12.7,70,0.00,,,0.01,WeatherDisplay:10.37,2013-03-07 18:44:00,
2013-03-07 12:50:00,39.2,30.2,28.98,SSE,158,13.8,13.8,70,0.00,,,0.01,WeatherDisplay:10.37,2013-03-07 18:50:00,
2013-03-07 12:55:00,39.0,29.0,28.97,SE,135,19.7,19.7,67,0.00,,,0.01,WeatherDisplay:10.37,2013-03-07 18:55:00,
2013-03-07 13:01:00,39.4,29.7,28.96,South,180,19.6,19.6,68,0.00,,,0.01,WeatherDisplay:10.37,2013-03-07 19:01:00,
2013-03-07 13:06:00,39.4,30.1,28.95,South,180,18.4,18.4,69,0.00,,,0.01,WeatherDisplay:10.37,2013-03-07 19:06:00,
2013-03-07 13:11:00,39.4,29.7,28.95,South,180,20.7,20.7,68,0.00,,,0.01,WeatherDisplay:10.37,2013-03-07 19:11:00,
2013-03-07 13:16:00,39.9,30.6,28.94,South,180,19.6,19.6,69,0.00,,,0.01,WeatherDisplay:10.37,2013-03-07 19:16:00,
2013-03-07 13:21:00,40.1,30.4,28.93,South,180,20.7,20.7,68,0.00,,,0.01,WeatherDisplay:10.37,2013-03-07 19:21:00,
2013-03-07 13:26:00,40.1,29.6,28.93,South,180,20.7,20.7,66,0.00,,,0.01,WeatherDisplay:10.37,2013-03-07 19:26:00,
2013-03-07 13:32:00,40.5,30.4,28.93,South,180,19.6,19.6,67,0.00,,,0.01,WeatherDisplay:10.37,2013-03-07 19:32:00,
2013-03-07 13:37:00,40.6,30.5,28.92,South,180,20.7,20.7,67,0.00,,,0.01,WeatherDisplay:10.37,2013-03-07 19:37:00,
2013-03-07 13:42:00,41.4,31.6,28.92,South,180,18.4,18.4,68,0.00,,,0.01,WeatherDisplay:10.37,2013-03-07 19:42:00,
2013-03-07 13:47:00,41.0,30.5,28.92,South,180,19.6,19.6,66,0.00,,,0.01,WeatherDisplay:10.37,2013-03-07 19:47:00,
2013-03-07 13:52:00,41.4,31.2,28.93,South,180,19.6,19.6,67,0.00,,,0.01,WeatherDisplay:10.37,2013-03-07 19:52:00,
2013-03-07 13:57:00,41.7,31.6,28.93,South,180,16.1,16.1,67,0.00,,,0.01,WeatherDisplay:10.37,2013-03-07 19:57:00,
2013-03-07 14:02:00,42.1,31.5,28.92,South,180,18.4,18.4,66,0.00,,,0.01,WeatherDisplay:10.37,2013-03-07 20:02:00,
2013-03-07 14:08:00,42.6,31.7,28.92,South,180,17.3,17.3,65,0.00,,,0.01,WeatherDisplay:10.37,2013-03-07 20:08:00,
2013-03-07 14:13:00,43.2,32.9,28.93,South,180,12.7,12.7,67,0.00,,,0.01,WeatherDisplay:10.37,2013-03-07 20:13:00,
2013-03-07 14:18:00,42.6,31.3,28.92,SE,135,15.0,15.0,64,0.00,,,0.01,WeatherDisplay:10.37,2013-03-07 20:18:00,
2013-03-07 14:23:00,42.6,31.3,28.93,SE,135,17.3,17.3,64,0.00,,,0.01,WeatherDisplay:10.37,2013-03-07 20:23:00,
2013-03-07 14:28:00,43.0,31.2,28.92,South,180,19.6,19.6,63,0.00,,,0.01,WeatherDisplay:10.37,2013-03-07 20:28:00,
2013-03-07 14:34:00,43.2,32.2,28.92,South,180,15.0,15.0,65,0.00,,,0.01,WeatherDisplay:10.37,2013-03-07 20:34:00,
2013-03-07 14:39:00,43.3,32.0,28.92,SE,135,17.3,17.3,64,0.00,,,0.01,WeatherDisplay:10.37,2013-03-07 20:39:00,
2013-03-07 14:44:00,44.1,33.0,28.92,SSE,158,15.0,15.0,65,0.00,,,0.01,WeatherDisplay:10.37,2013-03-07 20:44:00,
2013-03-07 14:49:00,44.2,32.4,28.92,South,180,16.1,16.1,63,0.00,,,0.01,WeatherDisplay:10.37,2013-03-07 20:49:00,
2013-03-07 14:54:00,44.2,32.8,28.92,SE,135,15.0,15.0,64,0.00,,,0.01,WeatherDisplay:10.37,2013-03-07 20:54:00,
2013-03-07 14:59:00,44.1,32.7,28.92,SSE,158,15.0,15.0,64,0.00,,,0.01,WeatherDisplay:10.37,2013-03-07 20:59:00,
2013-03-07 15:05:00,44.8,32.1,28.92,South,180,15.0,15.0,61,0.00,,,0.01,WeatherDisplay:10.37,2013-03-07 21:05:00,
2013-03-07 15:10:00,45.1,32.5,28.92,South,180,17.3,17.3,61,0.00,,,0.01,WeatherDisplay:10.37,2013-03-07 21:10:00,
2013-03-07 15:15:00,44.6,32.0,28.92,South,180,12.7,13.7,61,0.00,,,0.01,WeatherDisplay:10.37,2013-03-07 21:15:00,
2013-03-07 15:20:00,44.4,32.2,28.93,South,180,15.0,15.0,62,0.00,,,0.01,WeatherDisplay:10.37,2013-03-07 21:20:00,
2013-03-07 15:26:00,44.6,32.0,28.93,South,180,15.0,15.0,61,0.00,,,0.01,WeatherDisplay:10.37,2013-03-07 21:26:00,
2013-03-07 15:31:00,44.8,33.3,28.93,South,180,15.0,15.0,64,0.00,,,0.01,WeatherDisplay:10.37,2013-03-07 21:31:00,
2013-03-07 15:36:00,45.1,32.9,28.93,South,180,13.8,13.8,62,0.00,,,0.01,WeatherDisplay:10.37,2013-03-07 21:36:00,
2013-03-07 15:41:00,45.7,32.6,28.92,South,180,15.0,15.0,60,0.00,,,0.01,WeatherDisplay:10.37,2013-03-07 21:41:00,
2013-03-07 15:46:00,45.3,32.7,28.92,South,180,13.8,13.8,61,0.00,,,0.01,WeatherDisplay:10.37,2013-03-07 21:46:00,
2013-03-07 15:52:00,45.0,32.3,28.93,SSE,158,15.9,15.9,61,0.00,,,0.01,WeatherDisplay:10.37,2013-03-07 21:52:00,
2013-03-07 15:57:00,45.1,32.9,28.92,South,180,17.3,17.3,62,0.00,,,0.01,WeatherDisplay:10.37,2013-03-07 21:57:00,
2013-03-07 16:02:00,45.5,33.2,28.92,SE,135,16.1,16.1,62,0.00,,,0.01,WeatherDisplay:10.37,2013-03-07 22:02:00,
2013-03-07 16:07:00,45.3,32.2,28.92,South,180,17.3,17.3,60,0.00,,,0.01,WeatherDisplay:10.37,2013-03-07 22:07:00,
2013-03-07 16:12:00,45.1,33.3,28.92,South,180,17.3,17.3,63,0.00,,,0.01,WeatherDisplay:10.37,2013-03-07 22:12:00,
2013-03-07 16:18:00,45.1,32.9,28.92,SE,135,16.1,16.1,62,0.00,,,0.01,WeatherDisplay:10.37,2013-03-07 22:18:00,
2013-03-07 16:23:00,44.6,32.0,28.92,South,180,13.8,13.8,61,0.00,,,0.01,WeatherDisplay:10.37,2013-03-07 22:23:00,
2013-03-07 16:28:00,44.4,33.0,28.92,South,180,12.7,12.7,64,0.00,,,0.01,WeatherDisplay:10.37,2013-03-07 22:28:00,
2013-03-07 16:33:00,44.2,32.4,28.92,South,180,12.7,12.7,63,0.00,,,0.01,WeatherDisplay:10.37,2013-03-07 22:33:00,
2013-03-07 16:38:00,44.4,33.8,28.92,South,180,12.7,12.7,66,0.00,,,0.01,WeatherDisplay:10.37,2013-03-07 22:38:00,
2013-03-07 16:43:00,44.2,33.2,28.92,SSE,158,12.7,12.7,65,0.00,,,0.01,WeatherDisplay:10.37,2013-03-07 22:43:00,
2013-03-07 16:48:00,44.2,33.6,28.92,South,180,9.2,9.2,66,0.00,,,0.01,WeatherDisplay:10.37,2013-03-07 22:48:00,
2013-03-07 16:54:00,43.9,34.0,28.92,South,180,10.4,10.4,68,0.00,,,0.01,WeatherDisplay:10.37,2013-03-07 22:54:00,
2013-03-07 16:59:00,43.7,33.8,28.92,South,180,8.3,8.3,68,0.00,,,0.01,WeatherDisplay:10.37,2013-03-07 22:59:00,
2013-03-07 17:04:00,43.7,33.8,28.92,South,180,9.2,9.2,68,0.00,,,0.01,WeatherDisplay:10.37,2013-03-07 23:04:00,
2013-03-07 17:09:00,43.5,34.0,28.92,SSE,158,8.1,8.1,69,0.00,,,0.01,WeatherDisplay:10.37,2013-03-07 23:09:00,
2013-03-07 17:14:00,43.2,33.3,28.92,South,180,8.1,8.1,68,0.00,,,0.01,WeatherDisplay:10.37,2013-03-07 23:14:00,
2013-03-07 17:20:00,43.0,33.5,28.92,South,180,6.9,6.9,69,0.00,,,0.01,WeatherDisplay:10.37,2013-03-07 23:20:00,
2013-03-07 17:25:00,42.8,33.3,28.92,South,180,6.9,6.9,69,0.00,,,0.01,WeatherDisplay:10.37,2013-03-07 23:25:00,
2013-03-07 17:30:00,42.4,33.3,28.92,South,180,6.9,6.9,70,0.00,,,0.01,WeatherDisplay:10.37,2013-03-07 23:30:00,
2013-03-07 17:35:00,41.9,33.2,28.92,SE,135,4.6,4.6,71,0.00,,,0.01,WeatherDisplay:10.37,2013-03-07 23:35:00,
2013-03-07 17:40:00,41.7,32.7,28.92,SE,135,10.4,10.4,70,0.00,,,0.01,WeatherDisplay:10.37,2013-03-07 23:40:00,
2013-03-07 17:46:00,41.7,32.7,28.92,SE,135,6.9,6.9,70,0.00,,,0.01,WeatherDisplay:10.37,2013-03-07 23:46:00,
2013-03-07 17:51:00,41.7,32.7,28.92,SE,135,6.9,6.9,70,0.00,,,0.01,WeatherDisplay:10.37,2013-03-07 23:51:00,
2013-03-07 17:56:00,41.5,31.8,28.92,SE,135,6.0,6.0,68,0.00,,,0.01,WeatherDisplay:10.37,2013-03-07 23:56:00,
2013-03-07 18:01:00,41.4,31.6,28.92,East,90,5.8,5.8,68,0.00,,,0.01,WeatherDisplay:10.37,2013-03-08 00:01:00,
2013-03-07 18:07:00,41.4,31.6,28.92,East,90,5.8,5.8,68,0.00,,,0.01,WeatherDisplay:10.37,2013-03-08 00:07:00,
2013-03-07 18:12:00,41.0,31.6,28.92,SE,135,5.8,6.0,69,0.00,,,0.01,WeatherDisplay:10.37,2013-03-08 00:12:00,
2013-03-07 18:17:00,41.0,31.6,28.92,East,90,9.2,9.2,69,0.00,,,0.01,WeatherDisplay:10.37,2013-03-08 00:17:00,
2013-03-07 18:23:00,41.0,31.6,28.92,SE,135,6.9,6.9,69,0.00,,,0.01,WeatherDisplay:10.37,2013-03-08 00:23:00,
2013-03-07 18:28:00,40.8,31.4,28.93,SE,135,6.9,6.9,69,0.00,,,0.01,WeatherDisplay:10.37,2013-03-08 00:28:00,
2013-03-07 18:33:00,40.6,31.3,28.92,SE,135,11.5,11.5,69,0.00,,,0.01,WeatherDisplay:10.37,2013-03-08 00:33:00,
2013-03-07 18:38:00,40.5,31.1,28.92,SE,135,9.2,9.2,69,0.00,,,0.01,WeatherDisplay:10.37,2013-03-08 00:38:00,
2013-03-07 18:43:00,40.3,31.3,28.92,East,90,9.2,9.2,70,0.00,,,0.01,WeatherDisplay:10.37,2013-03-08 00:43:00,
2013-03-07 18:49:00,40.1,31.1,28.93,SE,135,8.1,8.1,70,0.00,,,0.01,WeatherDisplay:10.37,2013-03-08 00:49:00,
2013-03-07 18:54:00,39.7,31.1,28.93,ESE,112,9.2,9.2,71,0.00,,,0.01,WeatherDisplay:10.37,2013-03-08 00:54:00,
2013-03-07 18:59:00,39.6,31.3,28.93,South,180,12.7,12.7,72,0.00,,,0.01,WeatherDisplay:10.37,2013-03-08 00:59:00,
2013-03-07 19:04:00,39.6,31.6,28.93,ESE,112,12.7,12.7,73,0.00,,,0.01,WeatherDisplay:10.37,2013-03-08 01:04:00,
2013-03-07 19:10:00,38.5,31.6,28.94,SE,135,11.5,11.5,76,0.00,,,0.01,WeatherDisplay:10.37,2013-03-08 01:10:00,
2013-03-07 19:15:00,38.1,31.5,28.94,SE,135,10.4,10.4,77,0.00,,,0.01,WeatherDisplay:10.37,2013-03-08 01:15:00,
2013-03-07 19:20:00,37.8,31.5,28.94,SE,135,15.0,15.0,78,0.00,,,0.01,WeatherDisplay:10.37,2013-03-08 01:20:00,
2013-03-07 19:25:00,37.6,31.3,28.94,ESE,112,12.7,12.7,78,0.00,,,0.01,WeatherDisplay:10.37,2013-03-08 01:25:00,
2013-03-07 19:30:00,37.4,31.5,28.94,SE,135,12.7,12.7,79,0.00,,,0.01,WeatherDisplay:10.37,2013-03-08 01:30:00,
2013-03-07 19:36:00,37.2,31.3,28.94,East,90,12.7,12.7,79,0.00,,,0.01,WeatherDisplay:10.37,2013-03-08 01:36:00,
2013-03-07 19:41:00,37.2,31.3,28.94,SE,135,11.5,11.5,79,0.00,,,0.01,WeatherDisplay:10.37,2013-03-08 01:41:00,
2013-03-07 19:46:00,37.0,31.1,28.94,SE,135,12.7,12.7,79,0.00,,,0.01,WeatherDisplay:10.37,2013-03-08 01:46:00,
2013-03-07 19:51:00,36.9,31.0,28.94,SE,135,15.0,15.0,79,0.00,,,0.01,WeatherDisplay:10.37,2013-03-08 01:51:00,
2013-03-07 19:56:00,36.9,31.0,28.95,SE,135,12.7,12.7,79,0.00,,,0.01,WeatherDisplay:10.37,2013-03-08 01:56:00,
2013-03-07 20:01:00,36.7,30.8,28.95,SE,135,10.4,10.4,79,0.00,,,0.01,WeatherDisplay:10.37,2013-03-08 02:01:00,
2013-03-07 20:07:00,36.7,30.8,28.95,SE,135,10.4,10.4,79,0.00,,,0.01,WeatherDisplay:10.37,2013-03-08 02:07:00,
2013-03-07 20:12:00,36.3,30.7,28.96,SE,135,10.4,10.4,80,0.00,,,0.01,WeatherDisplay:10.37,2013-03-08 02:12:00,
2013-03-07 20:17:00,36.1,30.9,28.95,SE,135,8.1,8.1,81,0.00,,,0.01,WeatherDisplay:10.37,2013-03-08 02:17:00,
2013-03-07 20:23:00,35.6,30.6,28.96,South,180,8.1,8.1,82,0.00,,,0.01,WeatherDisplay:10.37,2013-03-08 02:23:00,
2013-03-07 20:28:00,35.4,30.8,28.96,SE,135,8.1,8.1,83,0.00,,,0.01,WeatherDisplay:10.37,2013-03-08 02:28:00,
2013-03-07 20:33:00,35.2,30.6,28.96,SE,135,8.1,8.1,83,0.00,,,0.01,WeatherDisplay:10.37,2013-03-08 02:33:00,
2013-03-07 20:38:00,35.4,30.5,28.95,SE,135,9.2,9.2,82,0.00,,,0.01,WeatherDisplay:10.37,2013-03-08 02:38:00,
2013-03-07 20:43:00,35.4,30.5,28.95,SSE,158,9.2,9.2,82,0.00,,,0.01,WeatherDisplay:10.37,2013-03-08 02:43:00,
2013-03-07 20:49:00,35.2,30.6,28.96,SE,135,9.2,9.2,83,0.00,,,0.01,WeatherDisplay:10.37,2013-03-08 02:49:00,
2013-03-07 20:54:00,35.1,30.4,28.97,SSE,158,9.2,9.2,83,0.00,,,0.01,WeatherDisplay:10.37,2013-03-08 02:54:00,
2013-03-07 20:59:00,34.9,30.5,28.97,SE,135,8.1,8.1,84,0.00,,,0.01,WeatherDisplay:10.37,2013-03-08 02:59:00,
2013-03-07 21:04:00,34.9,30.5,28.97,SE,135,8.1,8.1,84,0.00,,,0.01,WeatherDisplay:10.37,2013-03-08 03:04:00,
2013-03-07 21:09:00,34.3,30.3,28.97,South,180,8.1,8.1,85,0.00,,,0.01,WeatherDisplay:10.37,2013-03-08 03:09:00,
2013-03-07 21:15:00,34.2,30.1,28.97,SE,145,6.0,8.0,85,0.00,,,0.01,WeatherDisplay:10.37,2013-03-08 03:15:00,
2013-03-07 21:20:00,34.2,30.4,28.97,SE,135,9.2,9.2,86,0.00,,,0.01,WeatherDisplay:10.37,2013-03-08 03:20:00,
2013-03-07 21:25:00,34.0,30.2,28.97,SE,135,8.1,8.1,86,0.00,,,0.01,WeatherDisplay:10.37,2013-03-08 03:25:00,
2013-03-07 21:30:00,34.0,30.2,28.97,SE,135,9.2,9.2,86,0.00,,,0.01,WeatherDisplay:10.37,2013-03-08 03:30:00,
2013-03-07 21:35:00,34.2,30.4,28.97,SE,135,8.3,8.3,86,0.00,,,0.01,WeatherDisplay:10.37,2013-03-08 03:35:00,
2013-03-07 21:41:00,34.2,30.4,28.97,SE,135,9.2,9.2,86,0.00,,,0.01,WeatherDisplay:10.37,2013-03-08 03:41:00,
2013-03-07 21:46:00,34.2,30.1,28.97,SE,135,8.1,8.1,85,0.00,,,0.01,WeatherDisplay:10.37,2013-03-08 03:46:00,
2013-03-07 21:51:00,34.2,30.1,28.97,SE,135,10.4,10.4,85,0.00,,,0.01,WeatherDisplay:10.37,2013-03-08 03:51:00,
2013-03-07 21:56:00,34.0,29.9,28.97,SE,135,11.5,11.5,85,0.00,,,0.01,WeatherDisplay:10.37,2013-03-08 03:56:00,
2013-03-07 22:01:00,34.2,30.1,28.98,SE,135,10.4,10.4,85,0.00,,,0.01,WeatherDisplay:10.37,2013-03-08 04:01:00,
2013-03-07 22:06:00,34.2,30.1,28.98,SE,135,10.4,10.4,85,0.00,,,0.01,WeatherDisplay:10.37,2013-03-08 04:06:00,
2013-03-07 22:12:00,34.2,29.8,28.98,SE,135,10.4,10.4,84,0.00,,,0.01,WeatherDisplay:10.37,2013-03-08 04:12:00,
2013-03-07 22:17:00,34.0,29.7,28.98,SE,135,10.4,10.4,84,0.00,,,0.01,WeatherDisplay:10.37,2013-03-08 04:17:00,
2013-03-07 22:22:00,34.0,29.7,28.98,SE,135,10.4,10.4,84,0.00,,,0.01,WeatherDisplay:10.37,2013-03-08 04:22:00,
2013-03-07 22:27:00,33.8,29.5,28.98,SE,135,10.4,10.4,84,0.00,,,0.01,WeatherDisplay:10.37,2013-03-08 04:27:00,
2013-03-07 22:33:00,33.6,29.6,28.98,South,180,10.4,10.4,85,0.00,,,0.01,WeatherDisplay:10.37,2013-03-08 04:33:00,
2013-03-07 22:38:00,33.6,29.3,28.99,South,180,9.2,9.2,84,0.00,,,0.01,WeatherDisplay:10.37,2013-03-08 04:38:00,
2013-03-07 22:43:00,33.6,29.6,28.99,SSE,158,9.2,9.2,85,0.00,,,0.01,WeatherDisplay:10.37,2013-03-08 04:43:00,
2013-03-07 22:49:00,33.4,29.4,28.99,SSE,158,9.2,9.2,85,0.00,,,0.01,WeatherDisplay:10.37,2013-03-08 04:49:00,
2013-03-07 22:54:00,33.3,29.2,28.99,SE,135,8.1,8.1,85,0.00,,,0.01,WeatherDisplay:10.37,2013-03-08 04:54:00,
2013-03-07 22:59:00,33.1,29.3,28.99,South,180,8.1,8.1,86,0.00,,,0.01,WeatherDisplay:10.37,2013-03-08 04:59:00,
2013-03-07 23:00:00,33.1,29.3,28.99,SSE,147,5.0,9.0,86,0.00,,,0.01,WeatherDisplay:10.37,2013-03-08 05:00:00,
2013-03-07 23:01:00,33.1,29.3,29.00,SE,135,5.8,5.8,86,0.00,,,0.01,WeatherDisplay:10.37,2013-03-08 05:01:00,
2013-03-07 23:03:00,33.1,29.3,29.00,SE,135,5.8,5.8,86,0.00,,,0.01,WeatherDisplay:10.37,2013-03-08 05:03:00,
2013-03-07 23:07:00,33.1,29.3,29.00,SE,135,5.8,5.8,86,0.00,,,0.01,WeatherDisplay:10.37,2013-03-08 05:07:00,
2013-03-07 23:12:00,32.7,29.3,29.00,SSE,158,5.8,5.8,87,0.00,,,0.01,WeatherDisplay:10.37,2013-03-08 05:12:00,
2013-03-07 23:17:00,32.7,29.3,29.00,SSE,158,8.1,8.1,87,0.00,,,0.01,WeatherDisplay:10.37,2013-03-08 05:17:00,
2013-03-07 23:22:00,32.5,29.1,29.00,South,180,6.9,6.9,87,0.00,,,0.01,WeatherDisplay:10.37,2013-03-08 05:22:00,
2013-03-07 23:28:00,32.4,29.2,29.00,South,180,8.1,8.1,88,0.00,,,0.01,WeatherDisplay:10.37,2013-03-08 05:28:00,
2013-03-07 23:33:00,32.5,29.1,29.00,SE,135,9.2,9.2,87,0.00,,,0.01,WeatherDisplay:10.37,2013-03-08 05:33:00,
2013-03-07 23:38:00,32.5,29.1,29.00,SE,135,9.2,9.2,87,0.00,,,0.01,WeatherDisplay:10.37,2013-03-08 05:38:00,
2013-03-07 23:43:00,32.5,29.1,29.00,SSE,158,10.4,10.4,87,0.00,,,0.01,WeatherDisplay:10.37,2013-03-08 05:43:00,
2013-03-07 23:49:00,32.4,28.9,29.00,SE,135,9.8,9.8,87,0.00,,,0.01,WeatherDisplay:10.37,2013-03-08 05:49:00,
2013-03-07 23:54:00,32.4,28.9,29.00,South,180,8.1,8.1,87,0.00,,,0.01,WeatherDisplay:10.37,2013-03-08 05:54:00,
2013-03-07 23:59:00,32.4,28.9,29.00,South,180,8.1,8.1,87,0.00,,,0.01,WeatherDisplay:10.37,2013-03-08 05:59:00,